Latest Weather Observations for Coldstream

IDV60901

Issued at 6:01 pm EDT Friday 20 October 2017 (issued every 10 minutes, with the page automatically refreshed every 10 minutes)

About weather observations | Map of Melbourne area stations | Latest observations for Melbourne area | Other Formats
Station Details ID: 086383 Name: COLDSTREAM Lat: -37.72 Lon: 145.41 Height: 83.0 m
Data from the previous 72 hours. | See also: Recent months at Coldstream
Date/Time
EDT
Temp
°C
App
Temp
°C
Dew
Point
°C
Rel
Hum
%
Delta-T
°C
Wind Press
QNH
hPa
Press
MSL
hPa
Rain since
9am
mm
Dir  Spd
km/h
Gust
km/h
Spd
kts
Gust
kts
20/06:00pm 15.1 11.6 5.3 52 4.6 SSW 13 22 7 12 1027.2 1027.2 0.0
20/05:30pm 13.7 8.8 4.3 53 4.3 S 19 30 10 16 1027.1 1027.1 0.0
20/05:00pm 14.0 9.6 4.9 54 4.2 S 17 24 9 13 1027.0 1027.0 0.0
20/04:30pm 14.4 10.0 4.7 52 4.5 S 17 24 9 13 1026.8 1026.8 0.0
20/04:00pm 14.9 10.4 4.3 49 4.9 S 17 37 9 20 1026.7 1026.7 0.0
20/03:30pm 15.3 11.1 5.5 52 4.7 S 17 28 9 15 1026.7 1026.7 0.0
20/03:00pm 15.3 10.4 5.0 50 4.8 S 20 30 11 16 1026.9 1026.9 0.0
20/02:30pm 15.4 10.8 5.6 52 4.7 S 19 28 10 15 1027.0 1027.0 0.0
20/02:00pm 15.6 11.7 5.5 51 4.8 S 15 26 8 14 1027.0 1027.0 0.0
20/01:30pm 15.0 10.7 5.2 52 4.6 S 17 30 9 16 1027.0 1027.0 0.0
20/01:00pm 14.5 10.6 7.3 62 3.5 S 17 30 9 16 1027.2 1027.2 0.0
20/12:30pm 14.3 9.8 6.2 58 3.9 S 19 32 10 17 1027.2 1027.2 0.0
20/12:00pm 14.8 10.3 4.2 49 4.9 S 17 28 9 15 1027.1 1027.1 0.0
20/11:30am 14.3 10.0 5.4 55 4.2 SSW 17 32 9 17 1027.2 1027.2 0.0
20/11:00am 15.0 11.0 5.0 51 4.7 S 15 24 8 13 1027.3 1027.3 0.0
20/10:30am 14.9 10.5 4.6 50 4.8 S 17 28 9 15 1027.3 1027.3 0.0
20/10:00am 14.4 10.3 4.4 51 4.6 S 15 28 8 15 1027.2 1027.2 0.0
20/09:30am 13.7 9.0 5.3 57 3.9 SW 19 35 10 19 1027.0 1027.0 0.0
20/09:00am 13.4 8.7 5.3 58 3.8 SSW 19 30 10 16 1026.7 1026.7 5.4
20/08:30am 12.8 8.8 4.8 58 3.7 SSW 15 30 8 16 1026.6 1026.6 5.4
20/08:00am 12.1 8.5 5.0 62 3.3 S 13 24 7 13 1026.1 1026.2 5.4
20/07:30am 11.0 8.9 8.4 84 1.3 S 9 13 5 7 1025.8 1025.9 5.4
20/07:00am 9.6 9.4 9.1 97 0.2 CALM 0 0 0 0 1025.5 1025.6 5.4
20/06:30am 9.6 9.4 9.1 97 0.2 CALM 0 0 0 0 1025.1 1025.2 5.4
20/06:00am 9.6 9.3 8.7 94 0.4 CALM 0 0 0 0 1024.6 1024.6 5.4
20/05:30am 9.6 7.6 8.8 95 0.4 W 9 13 5 7 1024.3 1024.3 5.4
20/05:00am 8.3 7.9 8.2 99 0.0 CALM 0 9 0 5 1024.1 1024.1 5.4
20/04:30am 7.7 6.8 7.6 99 0.0 S 2 7 1 4 1023.9 1023.9 5.4
20/04:00am 7.4 6.6 6.5 94 0.4 CALM 0 0 0 0 1023.5 1023.5 5.4
20/03:30am 9.3 7.3 8.7 96 0.3 W 9 13 5 7 1023.7 1023.7 5.4
20/03:00am 10.0 9.9 9.5 97 0.2 CALM 0 4 0 2 1023.5 1023.5 5.4
20/02:30am 9.6 9.3 8.8 95 0.4 CALM 0 0 0 0 1023.7 1023.7 5.4
20/02:00am 8.8 7.7 7.1 89 0.8 SW 2 11 1 6 1023.8 1023.8 5.4
20/01:30am 9.4 6.7 7.5 88 0.9 WSW 11 13 6 7 1023.7 1023.7 5.4
20/01:00am 10.4 8.6 7.8 84 1.3 W 7 11 4 6 1023.8 1023.8 5.4
20/12:30am 11.6 9.6 8.8 83 1.4 WSW 9 15 5 8 1023.9 1023.9 5.4
20/12:00am 11.8 10.3 10.5 92 0.7 W 9 11 5 6 1024.0 1024.0 5.4
 
Date/Time
EDT
Temp
°C
App
Temp
°C
Dew
Point
°C
Rel
Hum
%
Delta-T
°C
Wind Press
QNH
hPa
Press
MSL
hPa
Rain since
9am
mm
Dir  Spd
km/h
Gust
km/h
Spd
kts
Gust
kts
19/11:30pm 11.6 11.6 9.7 88 1.0 CALM 0 0 0 0 1023.8 1023.8 5.4
19/11:00pm 12.7 12.0 10.1 84 1.3 SSW 4 7 2 4 1023.7 1023.7 5.4
19/10:30pm 13.4 12.8 10.4 82 1.6 SW 4 7 2 4 1023.7 1023.7 5.4
19/10:00pm 14.3 14.4 11.5 83 1.5 SE 2 6 1 3 1023.5 1023.5 5.4
19/09:30pm 14.5 13.5 11.1 80 1.8 SSE 7 11 4 6 1023.2 1023.2 5.4
19/09:00pm 14.8 14.2 11.8 82 1.6 S 6 7 3 4 1023.0 1023.0 5.4
19/08:30pm 15.0 13.9 12.0 82 1.6 SW 9 15 5 8 1022.4 1022.4 5.4
19/08:00pm 15.3 12.4 12.2 82 1.7 SW 19 26 10 14 1021.4 1021.4 5.4
19/07:30pm 15.8 14.6 12.9 83 1.6 SSW 11 24 6 13 1020.5 1020.5 5.4
19/07:00pm 16.4 15.1 13.7 84 1.5 SW 13 24 7 13 1019.6 1019.6 5.4
19/06:30pm 16.7 14.5 14.5 87 1.3 SW 19 30 10 16 1018.5 1018.5 5.4
19/06:00pm 17.8 14.6 15.2 85 1.5 SW 26 39 14 21 1017.9 1017.9 5.4
19/05:30pm 19.5 16.8 16.5 83 1.8 SW 26 43 14 23 1016.9 1016.9 5.4
19/05:06pm 21.7 19.8 16.6 73 3.1 SW 22 43 12 23 1016.1 1016.1 5.4
19/05:00pm 22.5 22.1 17.2 72 3.3 SW 15 22 8 12 1015.9 1015.9 5.4
19/04:30pm 21.3 24.0 20.6 96 0.5 NNW 7 13 4 7 1015.6 1015.6 5.4
19/04:00pm 21.3 23.5 20.3 94 0.6 SW 9 13 5 7 1015.5 1015.5 5.0
19/03:30pm 23.1 25.1 18.8 77 2.7 NW 6 11 3 6 1015.3 1015.3 2.4
19/03:00pm 23.3 23.1 18.4 74 3.1 N 17 28 9 15 1015.4 1015.4 2.2
19/02:30pm 23.9 23.6 18.3 71 3.5 N 17 26 9 14 1015.7 1015.7 2.2
19/02:00pm 23.8 23.5 19.1 75 3.0 N 19 33 10 18 1016.0 1016.0 2.2
19/01:30pm 22.8 23.1 19.6 82 2.1 N 17 26 9 14 1016.3 1016.3 2.2
19/01:00pm 20.3 22.1 19.5 95 0.5 N 9 13 5 7 1016.5 1016.5 2.0
19/12:30pm 20.5 20.9 18.1 86 1.5 NNW 13 19 7 10 1016.5 1016.5 1.0
19/12:00pm 21.6 21.9 17.8 79 2.4 NNW 13 22 7 12 1016.5 1016.5 0.0
19/11:30am 22.3 19.9 16.3 69 3.6 N 24 35 13 19 1016.4 1016.4 0.0
19/11:00am 22.0 20.2 16.1 69 3.6 N 20 35 11 19 1016.4 1016.4 0.0
19/10:30am 22.1 19.4 15.7 67 3.8 N 24 37 13 20 1016.4 1016.4 0.0
19/10:00am 21.8 20.2 16.1 70 3.4 N 19 32 10 17 1016.5 1016.5 0.0
19/09:30am 20.9 19.2 15.7 72 3.1 N 19 28 10 15 1016.8 1016.8 0.0
19/09:00am 21.4 18.4 14.8 66 3.9 N 24 37 13 20 1016.8 1016.8 0.0
19/08:30am 22.3 19.7 13.9 59 4.9 N 20 32 11 17 1016.6 1016.6 0.0
19/08:00am 22.7 20.6 13.5 56 5.3 N 17 28 9 15 1016.0 1016.0 0.0
19/07:30am 23.4 19.7 12.7 51 6.2 N 24 33 13 18 1015.5 1015.5 0.0
19/07:00am 23.2 20.2 11.9 49 6.4 N 19 30 10 16 1015.1 1015.1 0.0
19/06:30am 24.1 19.7 10.4 42 7.6 N 24 35 13 19 1014.7 1014.7 0.0
19/06:00am 23.4 19.9 10.1 43 7.3 N 19 30 10 16 1014.1 1014.0 0.0
19/05:30am 23.0 19.8 9.8 43 7.2 N 17 26 9 14 1014.1 1014.0 0.0
19/05:00am 22.9 20.5 10.0 44 7.1 N 13 20 7 11 1014.5 1014.4 0.0
19/04:30am 21.5 20.4 10.6 50 6.0 NE 7 17 4 9 1014.6 1014.5 0.0
19/04:00am 22.3 19.8 11.1 49 6.2 NE 15 28 8 15 1014.8 1014.8 0.0
19/03:30am 22.4 21.1 11.2 49 6.2 NE 9 17 5 9 1015.3 1015.3 0.0
19/03:00am 22.9 20.8 11.0 47 6.6 NE 13 20 7 11 1015.5 1015.5 0.0
19/02:30am 23.5 21.2 10.6 44 7.2 NE 13 24 7 13 1015.8 1015.8 0.0
19/02:00am 23.2 21.6 11.6 48 6.5 NE 11 20 6 11 1016.4 1016.4 0.0
19/01:30am 23.2 21.6 11.6 48 6.5 NNE 11 17 6 9 1016.6 1016.6 0.0
19/01:00am 23.4 21.1 11.8 48 6.6 NE 15 24 8 13 1016.9 1016.9 0.0
19/12:30am 22.3 20.8 13.1 56 5.3 NNE 13 24 7 13 1017.4 1017.4 0.0
19/12:24am 20.6 20.7 14.5 68 3.6 N 7 17 4 9 1017.6 1017.6 0.0
19/12:00am 15.4 16.0 13.2 87 1.2 E 2 9 1 5 1017.9 1017.9 0.0
 
Date/Time
EDT
Temp
°C
App
Temp
°C
Dew
Point
°C
Rel
Hum
%
Delta-T
°C
Wind Press
QNH
hPa
Press
MSL
hPa
Rain since
9am
mm
Dir  Spd
km/h
Gust
km/h
Spd
kts
Gust
kts
18/11:30pm 15.7 16.5 12.5 81 1.8 CALM 0 2 0 1 1018.4 1018.4 0.0
18/11:00pm 19.0 19.0 12.3 65 3.7 NNE 4 13 2 7 1018.6 1018.6 0.0
18/10:30pm 19.4 19.2 13.1 67 3.6 NE 6 13 3 7 1018.8 1018.8 0.0
18/10:00pm 20.3 19.7 13.5 65 3.9 NE 9 17 5 9 1019.0 1019.0 0.0
18/09:56pm 20.4 19.7 14.3 68 3.6 NE 11 17 6 9 1019.0 1019.0 0.0
18/09:30pm 15.3 16.6 14.0 92 0.7 CALM 0 0 0 0 1019.1 1019.1 0.0
18/09:00pm 16.0 17.2 13.8 87 1.2 CALM 0 0 0 0 1018.8 1018.8 0.0
18/08:30pm 17.5 18.8 14.0 80 2.0 CALM 0 0 0 0 1018.5 1018.5 0.0
18/08:00pm 20.8 21.8 13.3 62 4.3 CALM 0 6 0 3 1018.3 1018.3 0.0
18/07:30pm 23.7 23.0 13.3 52 6.1 N 9 11 5 6 1018.0 1018.0 0.0
18/07:00pm 25.5 24.9 13.4 47 7.1 NNW 9 11 5 6 1017.9 1017.9 0.0
18/06:30pm 26.7 25.9 14.1 46 7.5 NNW 11 17 6 9 1017.6 1017.6 0.0
18/06:00pm 27.6 25.6 12.8 40 8.7 N 15 26 8 14 1017.5 1017.5 0.0
18/05:30pm 28.0 25.1 12.4 38 9.1 NNW 19 28 10 15 1017.6 1017.6 0.0
18/05:00pm 28.3 26.3 12.6 38 9.2 N 15 24 8 13 1017.7 1017.7 0.0
18/04:30pm 28.4 25.6 12.7 38 9.2 NNW 19 30 10 16 1017.9 1017.9 0.0
18/04:00pm 28.7 26.0 13.0 38 9.3 N 19 28 10 15 1018.2 1018.2 0.0
18/03:30pm 28.7 26.2 13.4 39 9.1 N 19 30 10 16 1018.6 1018.6 0.0
18/03:00pm 28.7 26.3 13.8 40 8.9 N 19 35 10 19 1019.1 1019.1 0.0
18/02:30pm 28.3 25.8 13.4 40 8.9 N 19 30 10 16 1019.7 1019.7 0.0
18/02:00pm 27.9 25.2 13.4 40 8.6 N 20 32 11 17 1020.2 1020.2 0.0
18/01:30pm 27.5 24.4 13.4 41 8.4 N 22 32 12 17 1020.6 1020.6 0.0
18/01:00pm 26.7 23.1 13.1 43 8.0 N 24 35 13 19 1020.9 1020.9 0.0
18/12:30pm 26.7 23.4 14.1 46 7.5 N 24 39 13 21 1021.3 1021.3 0.0
18/12:00pm 25.9 22.8 13.4 46 7.3 N 22 33 12 18 1021.6 1021.6 0.0
18/11:30am 25.6 22.9 12.8 45 7.4 N 19 30 10 16 1021.8 1021.8 0.0
18/11:00am 25.2 22.2 12.4 45 7.4 N 20 32 11 17 1022.3 1022.3 0.0
18/10:30am 24.5 20.4 11.5 44 7.4 NNE 24 37 13 20 1022.6 1022.6 0.0
18/10:00am 24.1 20.9 11.8 46 7.0 N 20 35 11 19 1022.9 1022.9 0.0
18/09:55am 24.0 21.1 11.0 44 7.3 N 17 35 9 19 1022.9 1022.9 0.0
18/09:30am 23.1 22.2 11.2 47 6.7 N 7 13 4 7 1023.0 1023.0 0.0
18/09:00am 21.6 22.3 12.2 55 5.3 CALM 0 6 0 3 1023.0 1023.0 0.0
18/08:30am 17.7 17.5 11.9 69 3.2 SSE 4 6 2 3 1023.0 1023.0 0.0
18/08:00am 14.0 15.2 13.8 99 0.1 CALM 0 0 0 0 1023.0 1023.0 0.0
18/07:30am 11.2 11.5 11.0 99 0.1 CALM 0 0 0 0 1022.7 1022.7 0.0
18/07:00am 8.3 7.9 8.2 99 0.0 CALM 0 2 0 1 1022.3 1022.3 0.0
18/06:30am 8.1 6.9 8.0 99 0.0 SSW 4 9 2 5 1022.1 1022.1 0.0
18/06:00am 6.6 4.7 6.5 99 0.0 SE 6 7 3 4 1021.5 1021.5 0.0
18/05:30am 6.3 5.4 6.2 99 0.0 CALM 0 0 0 0 1021.2 1021.2 0.0
18/05:00am 6.5 5.7 6.4 99 0.0 CALM 0 0 0 0 1021.1 1021.1 0.0
18/04:30am 6.9 6.2 6.8 99 0.0 CALM 0 0 0 0 1021.0 1021.0 0.0
18/04:00am 7.0 6.3 6.9 99 0.0 CALM 0 0 0 0 1021.2 1021.2 0.0
18/03:30am 8.1 6.5 8.0 99 0.0 N 6 7 3 4 1021.3 1021.3 0.0
18/03:00am 8.9 8.6 8.8 99 0.0 CALM 0 0 0 0 1021.3 1021.3 0.0
18/02:30am 7.7 6.8 7.6 99 0.0 SSE 2 7 1 4 1021.6 1021.6 0.0
18/02:00am 8.5 7.8 8.4 99 0.0 S 2 7 1 4 1021.7 1021.7 0.0
18/01:30am 8.4 8.0 8.3 99 0.0 CALM 0 0 0 0 1022.1 1022.1 0.0
18/01:00am 9.3 9.1 9.2 99 0.0 CALM 0 0 0 0 1022.5 1022.5 0.0
18/12:30am 9.5 9.4 9.4 99 0.0 CALM 0 0 0 0 1022.6 1022.6 0.0
18/12:00am 9.5 9.4 9.4 99 0.0 CALM 0 0 0 0 1022.6 1022.6 0.0
 
Date/Time
EDT
Temp
°C
App
Temp
°C
Dew
Point
°C
Rel
Hum
%
Delta-T
°C
Wind Press
QNH
hPa
Press
MSL
hPa
Rain since
9am
mm
Dir  Spd
km/h
Gust
km/h
Spd
kts
Gust
kts
17/11:30pm 10.2 10.3 10.1 99 0.1 CALM 0 0 0 0 1022.6 1022.6 0.0
17/11:00pm 10.9 11.1 10.6 98 0.2 CALM 0 0 0 0 1022.6 1022.6 0.0
17/10:30pm 11.0 10.4 10.4 96 0.3 S 4 7 2 4 1022.5 1022.5 0.0
17/10:00pm 12.0 12.4 11.2 95 0.4 CALM 0 0 0 0 1022.2 1022.2 0.0
17/09:30pm 13.0 13.5 11.7 92 0.7 CALM 0 0 0 0 1022.1 1022.1 0.0
17/09:00pm 14.0 14.6 11.9 87 1.1 CALM 0 0 0 0 1021.8 1021.8 0.0
17/08:30pm 14.9 15.7 12.4 85 1.4 CALM 0 0 0 0 1021.5 1021.5 0.0
17/08:00pm 17.0 17.5 12.7 76 2.4 S 2 6 1 3 1021.1 1021.1 0.0
17/07:30pm 20.9 22.2 14.1 65 4.0 CALM 0 0 0 0 1020.9 1020.9 0.0
17/07:00pm 26.0 27.0 13.2 45 7.5 CALM 0 2 0 1 1020.7 1020.7 0.0
17/06:30pm 27.2 26.5 11.3 37 9.1 NNW 6 9 3 5 1020.6 1020.6 0.0

Latest Capital City Observations: Canberra | Sydney | Melbourne | Brisbane | Adelaide | Perth | Hobart | Darwin

Other Formats:

Comma delimited format used in spreadsheet applications
http://www.bom.gov.au/fwo/IDV60901/IDV60901.94864.axf

JavaScript Object Notation format (JSON) in row-major order
http://www.bom.gov.au/fwo/IDV60901/IDV60901.94864.json